sensor_id;sensor_type;location;lat;lon;timestamp;pressure;altitude;pressure_sealevel;temperature;humidity
21203;BME280;10759;51.982;9.232;2024-02-28T00:02:10;100692.56;;;1.14;100.00
21203;BME280;10759;51.982;9.232;2024-02-28T00:04:40;100679.31;;;1.11;100.00
21203;BME280;10759;51.982;9.232;2024-02-28T00:07:08;100694.44;;;1.42;100.00
21203;BME280;10759;51.982;9.232;2024-02-28T00:09:36;100698.78;;;1.28;100.00
21203;BME280;10759;51.982;9.232;2024-02-28T00:12:04;100697.81;;;1.12;100.00
21203;BME280;10759;51.982;9.232;2024-02-28T00:14:32;100703.03;;;1.03;100.00
21203;BME280;10759;51.982;9.232;2024-02-28T00:17:01;100703.72;;;0.76;100.00
21203;BME280;10759;51.982;9.232;2024-02-28T00:19:29;100696.63;;;0.64;100.00
21203;BME280;10759;51.982;9.232;2024-02-28T00:21:57;100697.41;;;0.52;100.00
21203;BME280;10759;51.982;9.232;2024-02-28T00:24:26;100695.63;;;0.51;100.00
21203;BME280;10759;51.982;9.232;2024-02-28T00:26:54;100701.75;;;0.47;100.00
21203;BME280;10759;51.982;9.232;2024-02-28T00:29:22;100697.16;;;0.25;100.00
21203;BME280;10759;51.982;9.232;2024-02-28T00:31:50;100699.78;;;0.25;100.00
21203;BME280;10759;51.982;9.232;2024-02-28T00:34:20;100698.97;;;0.27;100.00
21203;BME280;10759;51.982;9.232;2024-02-28T00:36:48;100697.19;;;0.26;100.00
21203;BME280;10759;51.982;9.232;2024-02-28T00:39:22;100698.84;;;0.19;100.00
21203;BME280;10759;51.982;9.232;2024-02-28T00:41:50;100708.53;;;0.19;100.00
21203;BME280;10759;51.982;9.232;2024-02-28T00:44:18;100705.00;;;0.18;100.00
21203;BME280;10759;51.982;9.232;2024-02-28T00:46:46;100703.28;;;0.20;100.00
21203;BME280;10759;51.982;9.232;2024-02-28T00:49:14;100712.13;;;0.29;100.00
21203;BME280;10759;51.982;9.232;2024-02-28T00:51:43;100714.81;;;0.30;100.00
21203;BME280;10759;51.982;9.232;2024-02-28T00:54:11;100699.88;;;0.34;100.00
21203;BME280;10759;51.982;9.232;2024-02-28T00:56:39;100699.25;;;0.62;100.00
21203;BME280;10759;51.982;9.232;2024-02-28T00:59:07;100706.41;;;0.79;100.00
21203;BME280;10759;51.982;9.232;2024-02-28T01:01:37;100694.78;;;0.52;100.00
21203;BME280;10759;51.982;9.232;2024-02-28T01:04:05;100713.25;;;0.55;100.00
21203;BME280;10759;51.982;9.232;2024-02-28T01:06:34;100697.19;;;0.29;100.00
21203;BME280;10759;51.982;9.232;2024-02-28T01:09:03;100712.16;;;0.27;100.00
21203;BME280;10759;51.982;9.232;2024-02-28T01:11:31;100708.53;;;0.17;100.00
21203;BME280;10759;51.982;9.232;2024-02-28T01:13:59;100712.97;;;0.25;100.00
21203;BME280;10759;51.982;9.232;2024-02-28T01:16:27;100708.47;;;0.14;100.00
21203;BME280;10759;51.982;9.232;2024-02-28T01:18:55;100718.94;;;0.04;100.00
21203;BME280;10759;51.982;9.232;2024-02-28T01:21:23;100699.50;;;-0.06;100.00
21203;BME280;10759;51.982;9.232;2024-02-28T01:23:52;100701.09;;;-0.22;100.00
21203;BME280;10759;51.982;9.232;2024-02-28T01:26:21;100710.78;;;-0.19;100.00
21203;BME280;10759;51.982;9.232;2024-02-28T01:28:49;100707.25;;;-0.20;100.00
21203;BME280;10759;51.982;9.232;2024-02-28T01:31:17;100712.69;;;-0.05;100.00
21203;BME280;10759;51.982;9.232;2024-02-28T01:33:45;100708.34;;;-0.01;100.00
21203;BME280;10759;51.982;9.232;2024-02-28T01:36:14;100700.47;;;0.04;100.00
21203;BME280;10759;51.982;9.232;2024-02-28T01:38:42;100713.63;;;0.02;100.00
21203;BME280;10759;51.982;9.232;2024-02-28T01:41:10;100713.66;;;0.04;100.00
21203;BME280;10759;51.982;9.232;2024-02-28T01:43:39;100711.03;;;0.04;100.00
21203;BME280;10759;51.982;9.232;2024-02-28T01:46:18;100626.19;;;-0.47;100.00
21203;BME280;10759;51.982;9.232;2024-02-28T01:48:48;100718.13;;;0.11;100.00
21203;BME280;10759;51.982;9.232;2024-02-28T01:51:16;100683.66;;;-0.09;100.00
21203;BME280;10759;51.982;9.232;2024-02-28T01:53:45;100709.13;;;-0.08;100.00
21203;BME280;10759;51.982;9.232;2024-02-28T01:56:14;100708.66;;;-0.50;100.00
21203;BME280;10759;51.982;9.232;2024-02-28T01:58:45;100697.41;;;-0.35;100.00
21203;BME280;10759;51.982;9.232;2024-02-28T02:01:14;100700.00;;;-0.41;100.00
21203;BME280;10759;51.982;9.232;2024-02-28T02:03:48;100691.84;;;-0.59;100.00
21203;BME280;10759;51.982;9.232;2024-02-28T02:06:18;100703.25;;;-0.62;100.00
21203;BME280;10759;51.982;9.232;2024-02-28T02:08:46;100699.72;;;-0.62;100.00
21203;BME280;10759;51.982;9.232;2024-02-28T02:11:16;100696.13;;;-0.69;100.00
21203;BME280;10759;51.982;9.232;2024-02-28T02:13:50;100704.03;;;-0.71;100.00
21203;BME280;10759;51.982;9.232;2024-02-28T02:16:20;100710.28;;;-0.61;100.00
21203;BME280;10759;51.982;9.232;2024-02-28T02:18:49;100703.34;;;-0.54;100.00
21203;BME280;10759;51.982;9.232;2024-02-28T02:21:18;100704.19;;;-0.58;100.00
21203;BME280;10759;51.982;9.232;2024-02-28T02:23:47;100704.09;;;-0.65;100.00
21203;BME280;10759;51.982;9.232;2024-02-28T02:26:15;100662.56;;;-0.89;100.00
21203;BME280;10759;51.982;9.232;2024-02-28T02:28:43;100703.16;;;-0.71;100.00
21203;BME280;10759;51.982;9.232;2024-02-28T02:31:13;100672.09;;;-0.97;100.00
21203;BME280;10759;51.982;9.232;2024-02-28T02:33:41;100687.97;;;-0.89;100.00
21203;BME280;10759;51.982;9.232;2024-02-28T02:36:09;100691.44;;;-0.93;100.00
21203;BME280;10759;51.982;9.232;2024-02-28T02:38:37;100674.53;;;-1.11;100.00
21203;BME280;10759;51.982;9.232;2024-02-28T02:41:07;100694.97;;;-0.90;100.00
21203;BME280;10759;51.982;9.232;2024-02-28T02:43:35;100700.06;;;-0.36;100.00
21203;BME280;10759;51.982;9.232;2024-02-28T02:46:03;100715.16;;;-0.22;100.00
21203;BME280;10759;51.982;9.232;2024-02-28T02:48:33;100602.19;;;-0.75;100.00
21203;BME280;10759;51.982;9.232;2024-02-28T02:51:01;100711.56;;;-0.25;100.00
21203;BME280;10759;51.982;9.232;2024-02-28T02:53:29;100701.53;;;-0.58;100.00
21203;BME280;10759;51.982;9.232;2024-02-28T02:56:03;100676.03;;;-0.62;100.00
21203;BME280;10759;51.982;9.232;2024-02-28T02:58:32;100644.28;;;-0.75;100.00
21203;BME280;10759;51.982;9.232;2024-02-28T03:01:00;100692.06;;;-0.44;100.00
21203;BME280;10759;51.982;9.232;2024-02-28T03:03:28;100703.59;;;-0.33;100.00
21203;BME280;10759;51.982;9.232;2024-02-28T03:05:57;100710.00;;;-0.12;100.00
21203;BME280;10759;51.982;9.232;2024-02-28T03:08:25;100706.56;;;-0.02;100.00
21203;BME280;10759;51.982;9.232;2024-02-28T03:10:53;100709.13;;;-0.11;100.00
21203;BME280;10759;51.982;9.232;2024-02-28T03:13:21;100709.06;;;-0.16;100.00
21203;BME280;10759;51.982;9.232;2024-02-28T03:15:51;100704.50;;;-0.31;100.00
21203;BME280;10759;51.982;9.232;2024-02-28T03:18:19;100719.44;;;-0.31;100.00
21203;BME280;10759;51.982;9.232;2024-02-28T03:20:47;100709.78;;;-0.28;100.00
21203;BME280;10759;51.982;9.232;2024-02-28T03:23:15;100714.31;;;-0.16;100.00
21203;BME280;10759;51.982;9.232;2024-02-28T03:25:43;100720.66;;;0.00;100.00
21203;BME280;10759;51.982;9.232;2024-02-28T03:28:11;100707.47;;;-0.02;100.00
21203;BME280;10759;51.982;9.232;2024-02-28T03:30:39;100710.00;;;-0.12;100.00
21203;BME280;10759;51.982;9.232;2024-02-28T03:33:10;100721.59;;;0.05;100.00
21203;BME280;10759;51.982;9.232;2024-02-28T03:35:38;100720.81;;;0.15;100.00
21203;BME280;10759;51.982;9.232;2024-02-28T03:38:06;100719.16;;;0.25;100.00
21203;BME280;10759;51.982;9.232;2024-02-28T03:40:34;100735.94;;;0.35;100.00
21203;BME280;10759;51.982;9.232;2024-02-28T03:43:02;100728.97;;;0.43;100.00
21203;BME280;10759;51.982;9.232;2024-02-28T03:45:30;100728.19;;;0.52;100.00
21203;BME280;10759;51.982;9.232;2024-02-28T03:47:58;100721.09;;;0.49;100.00
21203;BME280;10759;51.982;9.232;2024-02-28T03:50:27;100733.41;;;0.47;100.00
21203;BME280;10759;51.982;9.232;2024-02-28T03:52:55;100723.59;;;0.31;100.00
21203;BME280;10759;51.982;9.232;2024-02-28T03:55:22;100740.22;;;0.27;100.00
21203;BME280;10759;51.982;9.232;2024-02-28T03:57:50;100740.41;;;0.42;100.00
21203;BME280;10759;51.982;9.232;2024-02-28T04:00:19;100735.78;;;0.21;100.00
21203;BME280;10759;51.982;9.232;2024-02-28T04:02:47;100743.78;;;0.29;100.00
21203;BME280;10759;51.982;9.232;2024-02-28T04:05:15;100738.53;;;0.32;100.00
21203;BME280;10759;51.982;9.232;2024-02-28T04:07:45;100755.25;;;0.37;100.00
21203;BME280;10759;51.982;9.232;2024-02-28T04:10:13;100723.47;;;0.18;100.00
21203;BME280;10759;51.982;9.232;2024-02-28T04:12:42;100756.25;;;0.45;100.00
21203;BME280;10759;51.982;9.232;2024-02-28T04:15:11;100765.06;;;0.47;100.00
21203;BME280;10759;51.982;9.232;2024-02-28T04:17:42;100707.75;;;0.29;100.00
21203;BME280;10759;51.982;9.232;2024-02-28T04:20:10;100757.16;;;0.47;100.00
21203;BME280;10759;51.982;9.232;2024-02-28T04:22:39;100745.59;;;0.36;100.00
21203;BME280;10759;51.982;9.232;2024-02-28T04:25:09;100755.38;;;0.49;100.00
21203;BME280;10759;51.982;9.232;2024-02-28T04:27:37;100754.31;;;0.27;100.00
21203;BME280;10759;51.982;9.232;2024-02-28T04:30:06;100756.09;;;0.30;100.00
21203;BME280;10759;51.982;9.232;2024-02-28T04:32:34;100755.03;;;0.11;100.00
21203;BME280;10759;51.982;9.232;2024-02-28T04:35:03;100720.47;;;-0.15;100.00
21203;BME280;10759;51.982;9.232;2024-02-28T04:37:31;100733.03;;;0.09;100.00
21203;BME280;10759;51.982;9.232;2024-02-28T04:40:01;100763.16;;;0.34;100.00
21203;BME280;10759;51.982;9.232;2024-02-28T04:42:30;100771.19;;;0.46;100.00
21203;BME280;10759;51.982;9.232;2024-02-28T04:44:59;100777.44;;;0.54;100.00
21203;BME280;10759;51.982;9.232;2024-02-28T04:47:27;100772.09;;;0.48;100.00
21203;BME280;10759;51.982;9.232;2024-02-28T04:50:06;100780.81;;;0.41;100.00
21203;BME280;10759;51.982;9.232;2024-02-28T04:52:34;100784.31;;;0.41;100.00
21203;BME280;10759;51.982;9.232;2024-02-28T04:55:02;100792.09;;;0.29;100.00
21203;BME280;10759;51.982;9.232;2024-02-28T04:57:32;100798.38;;;0.40;100.00
21203;BME280;10759;51.982;9.232;2024-02-28T05:00:00;100789.53;;;0.37;100.00
21203;BME280;10759;51.982;9.232;2024-02-28T05:02:30;100795.84;;;0.51;100.00
21203;BME280;10759;51.982;9.232;2024-02-28T05:04:58;100722.56;;;0.16;100.00
21203;BME280;10759;51.982;9.232;2024-02-28T05:07:26;100811.06;;;0.77;100.00
21203;BME280;10759;51.982;9.232;2024-02-28T05:09:53;100817.19;;;0.74;100.00
21203;BME280;10759;51.982;9.232;2024-02-28T05:12:21;100814.41;;;0.60;100.00
21203;BME280;10759;51.982;9.232;2024-02-28T05:14:51;100825.03;;;0.68;100.00
21203;BME280;10759;51.982;9.232;2024-02-28T05:17:21;100822.31;;;0.60;100.00
21203;BME280;10759;51.982;9.232;2024-02-28T05:19:49;100821.44;;;0.61;100.00
21203;BME280;10759;51.982;9.232;2024-02-28T05:22:17;100805.56;;;0.55;100.00
21203;BME280;10759;51.982;9.232;2024-02-28T05:24:45;100823.31;;;0.76;100.00
21203;BME280;10759;51.982;9.232;2024-02-28T05:27:14;100819.72;;;0.65;100.00
21203;BME280;10759;51.982;9.232;2024-02-28T05:29:42;100821.41;;;0.58;100.00
21203;BME280;10759;51.982;9.232;2024-02-28T05:32:11;100822.34;;;0.63;100.00
21203;BME280;10759;51.982;9.232;2024-02-28T05:34:39;100823.25;;;0.69;100.00
21203;BME280;10759;51.982;9.232;2024-02-28T05:37:07;100832.97;;;0.71;100.00
21203;BME280;10759;51.982;9.232;2024-02-28T05:39:35;100806.41;;;0.53;100.00
21203;BME280;10759;51.982;9.232;2024-02-28T05:42:03;100846.19;;;0.76;100.00
21203;BME280;10759;51.982;9.232;2024-02-28T05:44:31;100833.69;;;0.56;100.00
21203;BME280;10759;51.982;9.232;2024-02-28T05:47:01;100847.69;;;0.49;100.00
21203;BME280;10759;51.982;9.232;2024-02-28T05:49:31;100840.59;;;0.43;100.00
21203;BME280;10759;51.982;9.232;2024-02-28T05:51:59;100724.00;;;-0.16;100.00
21203;BME280;10759;51.982;9.232;2024-02-28T05:54:27;100846.03;;;0.57;100.00
21203;BME280;10759;51.982;9.232;2024-02-28T05:56:56;100845.44;;;0.88;100.00
21203;BME280;10759;51.982;9.232;2024-02-28T05:59:24;100851.53;;;0.80;100.00
21203;BME280;10759;51.982;9.232;2024-02-28T06:01:53;100857.59;;;0.73;100.00
21203;BME280;10759;51.982;9.232;2024-02-28T06:04:21;100856.50;;;0.51;100.00
21203;BME280;10759;51.982;9.232;2024-02-28T06:06:50;100861.72;;;0.45;100.00
21203;BME280;10759;51.982;9.232;2024-02-28T06:09:18;100862.50;;;0.36;100.00
21203;BME280;10759;51.982;9.232;2024-02-28T06:11:46;100859.00;;;0.39;100.00
21203;BME280;10759;51.982;9.232;2024-02-28T06:14:14;100851.16;;;0.42;100.00
21203;BME280;10759;51.982;9.232;2024-02-28T06:16:42;100862.69;;;0.53;100.00
21203;BME280;10759;51.982;9.232;2024-02-28T06:19:10;100853.91;;;0.53;100.00
21203;BME280;10759;51.982;9.232;2024-02-28T06:21:38;100861.72;;;0.45;100.00
21203;BME280;10759;51.982;9.232;2024-02-28T06:24:07;100865.19;;;0.39;100.00
21203;BME280;10759;51.982;9.232;2024-02-28T06:26:35;100866.09;;;0.43;100.00
21203;BME280;10759;51.982;9.232;2024-02-28T06:29:03;100867.00;;;0.47;100.00
21203;BME280;10759;51.982;9.232;2024-02-28T06:31:32;100883.00;;;0.60;100.00
21203;BME280;10759;51.982;9.232;2024-02-28T06:34:00;100880.25;;;0.50;100.00
21203;BME280;10759;51.982;9.232;2024-02-28T06:36:30;100881.03;;;0.44;100.00
21203;BME280;10759;51.982;9.232;2024-02-28T06:38:58;100884.59;;;0.49;100.00
21203;BME280;10759;51.982;9.232;2024-02-28T06:41:27;100888.22;;;0.54;100.00
21203;BME280;10759;51.982;9.232;2024-02-28T06:43:55;100890.88;;;0.57;100.00
21203;BME280;10759;51.982;9.232;2024-02-28T06:46:23;100883.78;;;0.53;100.00
21203;BME280;10759;51.982;9.232;2024-02-28T06:48:51;100868.75;;;0.46;100.00
21203;BME280;10759;51.982;9.232;2024-02-28T06:51:19;100892.78;;;0.74;100.00
21203;BME280;10759;51.982;9.232;2024-02-28T06:53:47;100887.50;;;0.69;100.00
21203;BME280;10759;51.982;9.232;2024-02-28T06:56:15;100891.09;;;0.79;100.00
21203;BME280;10759;51.982;9.232;2024-02-28T06:58:45;100889.50;;;0.98;100.00
21203;BME280;10759;51.982;9.232;2024-02-28T07:01:12;100887.50;;;0.69;100.00
21203;BME280;10759;51.982;9.232;2024-02-28T07:03:41;100880.41;;;0.65;100.00
21203;BME280;10759;51.982;9.232;2024-02-28T07:06:09;100878.72;;;0.72;100.00
21203;BME280;10759;51.982;9.232;2024-02-28T07:08:37;100863.59;;;0.55;100.00
21203;BME280;10759;51.982;9.232;2024-02-28T07:11:13;100885.72;;;0.71;100.00
21203;BME280;10759;51.982;9.232;2024-02-28T07:13:41;100832.69;;;0.43;100.00
21203;BME280;10759;51.982;9.232;2024-02-28T07:16:10;100879.66;;;0.77;100.00
21203;BME280;10759;51.982;9.232;2024-02-28T07:18:38;100888.47;;;0.83;100.00
21203;BME280;10759;51.982;9.232;2024-02-28T07:21:07;100883.34;;;0.97;100.00
21203;BME280;10759;51.982;9.232;2024-02-28T07:23:38;100882.53;;;1.01;100.00
21203;BME280;10759;51.982;9.232;2024-02-28T07:26:06;100882.53;;;1.01;100.00
21203;BME280;10759;51.982;9.232;2024-02-28T07:28:48;100894.75;;;0.95;100.00
21203;BME280;10759;51.982;9.232;2024-02-28T07:31:19;100888.59;;;0.96;100.00
21203;BME280;10759;51.982;9.232;2024-02-28T07:33:47;100873.69;;;0.99;100.00
21203;BME280;10759;51.982;9.232;2024-02-28T07:36:15;100897.78;;;1.36;100.00
21203;BME280;10759;51.982;9.232;2024-02-28T07:38:43;100907.50;;;1.42;100.00
21203;BME280;10759;51.982;9.232;2024-02-28T07:41:11;100903.94;;;1.40;100.00
21203;BME280;10759;51.982;9.232;2024-02-28T07:43:41;100905.81;;;1.53;100.00
21203;BME280;10759;51.982;9.232;2024-02-28T07:46:10;100891.72;;;1.51;100.00
21203;BME280;10759;51.982;9.232;2024-02-28T07:48:40;100912.16;;;1.81;100.00
21203;BME280;10759;51.982;9.232;2024-02-28T07:51:08;100904.28;;;1.87;100.00
21203;BME280;10759;51.982;9.232;2024-02-28T07:53:38;100908.75;;;1.98;100.00
21203;BME280;10759;51.982;9.232;2024-02-28T07:56:06;100916.66;;;1.90;100.00
21203;BME280;10759;51.982;9.232;2024-02-28T07:58:34;100919.25;;;1.85;100.00
21203;BME280;10759;51.982;9.232;2024-02-28T08:01:02;100922.03;;;2.08;100.00
21203;BME280;10759;51.982;9.232;2024-02-28T08:03:31;100919.41;;;2.13;100.00
21203;BME280;10759;51.982;9.232;2024-02-28T08:06:01;100909.69;;;2.07;100.00
21203;BME280;10759;51.982;9.232;2024-02-28T08:08:28;100917.75;;;2.35;100.00
21203;BME280;10759;51.982;9.232;2024-02-28T08:10:56;100920.41;;;2.43;100.00
21203;BME280;10759;51.982;9.232;2024-02-28T08:13:24;100923.09;;;2.49;100.00
21203;BME280;10759;51.982;9.232;2024-02-28T08:15:54;100920.50;;;2.70;100.00
21203;BME280;10759;51.982;9.232;2024-02-28T08:18:22;100925.84;;;2.81;100.00
21203;BME280;10759;51.982;9.232;2024-02-28T08:20:50;100917.00;;;2.76;100.00
21203;BME280;10759;51.982;9.232;2024-02-28T08:23:21;100927.56;;;2.73;100.00
21203;BME280;10759;51.982;9.232;2024-02-28T08:25:51;100917.00;;;2.85;100.00
21203;BME280;10759;51.982;9.232;2024-02-28T08:28:19;100916.16;;;2.97;100.00
21203;BME280;10759;51.982;9.232;2024-02-28T08:30:48;100915.22;;;2.70;100.00
21203;BME280;10759;51.982;9.232;2024-02-28T08:33:17;100927.59;;;2.90;100.00
21203;BME280;10759;51.982;9.232;2024-02-28T08:35:50;100925.84;;;2.84;100.00
21203;BME280;10759;51.982;9.232;2024-02-28T08:38:18;100932.03;;;2.94;100.00
21203;BME280;10759;51.982;9.232;2024-02-28T08:40:48;100935.59;;;2.99;100.00
21203;BME280;10759;51.982;9.232;2024-02-28T08:43:16;100939.13;;;3.09;100.00
21203;BME280;10759;51.982;9.232;2024-02-28T08:45:44;100937.31;;;2.85;100.00
21203;BME280;10759;51.982;9.232;2024-02-28T08:48:12;100936.47;;;2.93;100.00
21203;BME280;10759;51.982;9.232;2024-02-28T08:50:40;100944.44;;;3.12;100.00
21203;BME280;10759;51.982;9.232;2024-02-28T08:53:08;100943.56;;;3.33;100.00
21203;BME280;10759;51.982;9.232;2024-02-28T08:55:36;100947.97;;;3.44;100.00
21203;BME280;10759;51.982;9.232;2024-02-28T08:58:05;100917.97;;;3.41;100.00
21203;BME280;10759;51.982;9.232;2024-02-28T09:00:33;100963.88;;;3.71;100.00
21203;BME280;10759;51.982;9.232;2024-02-28T09:03:01;100864.09;;;3.16;100.00
21203;BME280;10759;51.982;9.232;2024-02-28T09:05:31;100922.38;;;3.31;100.00
21203;BME280;10759;51.982;9.232;2024-02-28T09:07:58;100971.84;;;3.60;100.00
21203;BME280;10759;51.982;9.232;2024-02-28T09:10:27;100978.03;;;3.53;100.00
21203;BME280;10759;51.982;9.232;2024-02-28T09:12:58;100951.53;;;3.33;100.00
21203;BME280;10759;51.982;9.232;2024-02-28T09:15:27;100988.63;;;3.54;100.00
21203;BME280;10759;51.982;9.232;2024-02-28T09:17:55;100957.72;;;3.58;100.00
21203;BME280;10759;51.982;9.232;2024-02-28T09:20:23;100980.69;;;3.77;100.00
21203;BME280;10759;51.982;9.232;2024-02-28T09:22:51;100987.75;;;3.78;100.00
21203;BME280;10759;51.982;9.232;2024-02-28T09:25:19;100976.28;;;3.79;100.00
21203;BME280;10759;51.982;9.232;2024-02-28T09:27:49;100973.59;;;3.88;100.00
21203;BME280;10759;51.982;9.232;2024-02-28T09:30:18;100972.69;;;4.03;100.00
21203;BME280;10759;51.982;9.232;2024-02-28T09:32:47;100976.25;;;3.99;100.00
21203;BME280;10759;51.982;9.232;2024-02-28T09:35:15;100965.66;;;3.87;100.00
21203;BME280;10759;51.982;9.232;2024-02-28T09:37:43;100975.34;;;4.02;100.00
21203;BME280;10759;51.982;9.232;2024-02-28T09:40:12;100982.41;;;4.17;100.00
21203;BME280;10759;51.982;9.232;2024-02-28T09:42:40;100977.06;;;4.24;100.00
21203;BME280;10759;51.982;9.232;2024-02-28T09:45:09;100979.69;;;4.38;100.00
21203;BME280;10759;51.982;9.232;2024-02-28T09:47:39;100924.91;;;4.13;100.00
21203;BME280;10759;51.982;9.232;2024-02-28T09:50:08;100988.47;;;4.57;100.00
21203;BME280;10759;51.982;9.232;2024-02-28T09:52:37;100987.56;;;4.64;100.00
21203;BME280;10759;51.982;9.232;2024-02-28T09:55:05;100994.66;;;4.59;100.00
21203;BME280;10759;51.982;9.232;2024-02-28T09:57:35;100991.97;;;4.73;100.00
21203;BME280;10759;51.982;9.232;2024-02-28T10:00:05;100986.69;;;4.59;100.00
21203;BME280;10759;51.982;9.232;2024-02-28T10:02:37;100995.50;;;4.67;100.00
21203;BME280;10759;51.982;9.232;2024-02-28T10:05:08;100997.31;;;4.58;100.00
21203;BME280;10759;51.982;9.232;2024-02-28T10:07:37;101005.34;;;4.35;100.00
21203;BME280;10759;51.982;9.232;2024-02-28T10:10:06;101005.34;;;4.32;100.00
21203;BME280;10759;51.982;9.232;2024-02-28T10:12:40;100995.66;;;4.26;100.00
21203;BME280;10759;51.982;9.232;2024-02-28T10:15:09;100976.25;;;3.93;100.00
21203;BME280;10759;51.982;9.232;2024-02-28T10:17:37;100970.94;;;3.90;100.00
21203;BME280;10759;51.982;9.232;2024-02-28T10:20:06;101021.34;;;4.04;100.00
21203;BME280;10759;51.982;9.232;2024-02-28T10:22:37;101022.22;;;4.14;100.00
21203;BME280;10759;51.982;9.232;2024-02-28T10:25:06;100889.69;;;3.55;100.00
21203;BME280;10759;51.982;9.232;2024-02-28T10:27:34;101011.47;;;4.55;100.00
21203;BME280;10759;51.982;9.232;2024-02-28T10:30:04;101000.00;;;4.51;100.00
21203;BME280;10759;51.982;9.232;2024-02-28T10:32:32;101007.00;;;4.76;100.00
21203;BME280;10759;51.982;9.232;2024-02-28T10:35:03;101005.22;;;4.76;100.00
21203;BME280;10759;51.982;9.232;2024-02-28T10:37:40;101007.91;;;4.58;100.00
21203;BME280;10759;51.982;9.232;2024-02-28T10:40:09;101007.84;;;4.85;100.00
21203;BME280;10759;51.982;9.232;2024-02-28T10:42:39;101003.50;;;4.66;100.00
21203;BME280;10759;51.982;9.232;2024-02-28T10:45:09;100998.22;;;4.58;100.00
21203;BME280;10759;51.982;9.232;2024-02-28T10:47:56;100989.25;;;4.81;100.00
21203;BME280;10759;51.982;9.232;2024-02-28T10:50:24;100998.91;;;4.99;100.00
21203;BME280;10759;51.982;9.232;2024-02-28T10:52:54;101006.00;;;4.97;100.00
21203;BME280;10759;51.982;9.232;2024-02-28T10:55:32;100989.31;;;4.68;100.00
21203;BME280;10759;51.982;9.232;2024-02-28T10:58:02;101006.84;;;5.03;100.00
21203;BME280;10759;51.982;9.232;2024-02-28T11:00:31;100992.56;;;5.24;100.00
21203;BME280;10759;51.982;9.232;2024-02-28T11:03:00;100997.00;;;5.27;100.00
21203;BME280;10759;51.982;9.232;2024-02-28T11:05:36;100995.22;;;5.23;100.00
21203;BME280;10759;51.982;9.232;2024-02-28T11:08:08;100980.97;;;5.31;100.00
21203;BME280;10759;51.982;9.232;2024-02-28T11:10:40;101004.00;;;5.34;100.00
21203;BME280;10759;51.982;9.232;2024-02-28T11:13:09;100996.78;;;5.53;100.00
21203;BME280;10759;51.982;9.232;2024-02-28T11:15:38;100987.84;;;5.63;100.00
21203;BME280;10759;51.982;9.232;2024-02-28T11:18:10;100982.53;;;5.66;100.00
21203;BME280;10759;51.982;9.232;2024-02-28T11:20:38;100987.06;;;5.50;100.00
21203;BME280;10759;51.982;9.232;2024-02-28T11:23:08;100977.22;;;5.65;100.00
21203;BME280;10759;51.982;9.232;2024-02-28T11:25:37;100986.03;;;5.68;100.00
21203;BME280;10759;51.982;9.232;2024-02-28T11:28:05;100978.28;;;5.41;100.00
21203;BME280;10759;51.982;9.232;2024-02-28T11:30:33;100978.25;;;5.45;100.00
21203;BME280;10759;51.982;9.232;2024-02-28T11:33:01;100928.81;;;5.18;100.00
21203;BME280;10759;51.982;9.232;2024-02-28T11:35:32;100960.63;;;5.32;100.00
21203;BME280;10759;51.982;9.232;2024-02-28T11:38:00;100974.84;;;5.22;100.00
21203;BME280;10759;51.982;9.232;2024-02-28T11:40:29;100980.06;;;5.40;100.00
21203;BME280;10759;51.982;9.232;2024-02-28T11:42:57;100978.22;;;5.51;100.00
21203;BME280;10759;51.982;9.232;2024-02-28T11:45:26;100962.16;;;5.60;100.00
21203;BME280;10759;51.982;9.232;2024-02-28T11:47:54;100973.56;;;5.75;100.00
21203;BME280;10759;51.982;9.232;2024-02-28T11:50:22;100967.25;;;5.85;100.00
21203;BME280;10759;51.982;9.232;2024-02-28T11:52:53;100961.91;;;5.91;100.00
21203;BME280;10759;51.982;9.232;2024-02-28T11:55:21;100983.03;;;6.10;100.00
21203;BME280;10759;51.982;9.232;2024-02-28T11:57:53;100936.13;;;5.98;100.00
21203;BME280;10759;51.982;9.232;2024-02-28T12:00:21;100985.16;;;6.59;100.00
21203;BME280;10759;51.982;9.232;2024-02-28T12:02:49;100981.47;;;6.71;100.00
21203;BME280;10759;51.982;9.232;2024-02-28T12:05:19;100942.50;;;6.63;100.00
21203;BME280;10759;51.982;9.232;2024-02-28T12:07:47;100985.16;;;6.60;100.00
21203;BME280;10759;51.982;9.232;2024-02-28T12:10:15;100978.81;;;6.69;100.00
21203;BME280;10759;51.982;9.232;2024-02-28T12:12:44;100975.16;;;6.76;100.00
21203;BME280;10759;51.982;9.232;2024-02-28T12:15:14;100967.16;;;6.78;100.00
21203;BME280;10759;51.982;9.232;2024-02-28T12:17:43;100961.69;;;6.90;100.00
21203;BME280;10759;51.982;9.232;2024-02-28T12:20:11;100930.00;;;6.69;100.00
21203;BME280;10759;51.982;9.232;2024-02-28T12:22:38;100845.31;;;6.27;100.00
21203;BME280;10759;51.982;9.232;2024-02-28T12:25:06;100961.34;;;7.15;100.00
21203;BME280;10759;51.982;9.232;2024-02-28T12:27:35;100956.19;;;7.02;100.00
21203;BME280;10759;51.982;9.232;2024-02-28T12:30:04;100953.34;;;7.15;100.00
21203;BME280;10759;51.982;9.232;2024-02-28T12:32:34;100953.34;;;7.15;100.00
21203;BME280;10759;51.982;9.232;2024-02-28T12:35:02;100951.56;;;7.14;100.00
21203;BME280;10759;51.982;9.232;2024-02-28T12:37:30;100877.66;;;6.66;100.00
21203;BME280;10759;51.982;9.232;2024-02-28T12:39:58;100930.63;;;6.86;100.00
21203;BME280;10759;51.982;9.232;2024-02-28T12:42:27;100935.78;;;6.98;100.00
21203;BME280;10759;51.982;9.232;2024-02-28T12:44:55;100821.25;;;6.36;100.00
21203;BME280;10759;51.982;9.232;2024-02-28T12:47:23;100929.94;;;6.72;100.00
21203;BME280;10759;51.982;9.232;2024-02-28T12:49:52;100879.56;;;6.56;100.00
21203;BME280;10759;51.982;9.232;2024-02-28T12:52:21;100915.56;;;6.85;100.00
21203;BME280;10759;51.982;9.232;2024-02-28T12:54:49;100915.44;;;6.94;100.00
21203;BME280;10759;51.982;9.232;2024-02-28T12:57:17;100902.50;;;6.66;100.00